Time;durP1;ratioP1;P1;durP2;ratioP2;P2;SDS_P1;SDS_P2;PMS_P1;PMS_P2;Temp;Humidity;BMP_temperature;BMP_pressure;BME280_temperature;BME280_humidity;BME280_pressure;Samples;Min_cycle;Max_cycle;Signal;HPM_P1;HPM_P2
2021/07/25 06:07:35;;;;;;;14.90;8.98;;;;;;;19.50;98.00;98231.59;5695782;23;20560;-78
2021/07/25 06:10:01;;;;;;;9.50;8.23;;;;;;;19.58;97.35;98233.75;4916098;29;20072;-73
2021/07/25 06:12:26;;;;;;;12.35;9.00;;;;;;;19.65;96.97;98235.06;4915854;29;20422;-73
2021/07/25 06:14:51;;;;;;;12.27;9.10;;;;;;;19.81;97.11;98241.97;4915427;29;20130;-77
2021/07/25 06:17:17;;;;;;;9.02;7.22;;;;;;;19.93;93.73;98238.56;4914832;29;20394;-73
2021/07/25 06:19:42;;;;;;;10.65;7.70;;;;;;;19.91;92.49;98235.16;4939513;23;20123;-72
2021/07/25 06:22:07;;;;;;;13.48;8.27;;;;;;;19.77;93.26;98243.94;4915776;29;20088;-73
2021/07/25 06:24:33;;;;;;;10.95;7.65;;;;;;;19.75;93.00;98244.03;4915975;29;20032;-73
2021/07/25 06:26:58;;;;;;;10.88;7.53;;;;;;;19.87;92.48;98234.53;4915870;29;20034;-73
2021/07/25 06:29:23;;;;;;;14.25;8.10;;;;;;;19.93;92.61;98239.41;4915923;29;20028;-73
2021/07/25 06:31:49;;;;;;;14.45;8.45;;;;;;;20.14;93.19;98242.41;4915550;29;20545;-72
2021/07/25 06:34:14;;;;;;;17.63;7.72;;;;;;;20.50;91.32;98238.31;4915682;29;20107;-72
2021/07/25 06:36:39;;;;;;;12.18;8.43;;;;;;;20.69;90.11;98238.75;4915847;29;20028;-72
2021/07/25 06:39:07;;;;;;;13.15;7.78;;;;;;;20.42;90.37;98243.22;4915806;29;20088;-72
2021/07/25 06:41:32;;;;;;;13.23;8.05;;;;;;;20.32;90.42;98234.25;4915396;29;20464;-72
2021/07/25 06:43:57;;;;;;;10.50;6.90;;;;;;;20.43;88.41;98226.47;4915897;29;20051;-71
2021/07/25 06:46:23;;;;;;;10.88;6.82;;;;;;;20.46;87.84;98231.56;4915751;29;20028;-72
2021/07/25 06:48:48;;;;;;;13.45;6.72;;;;;;;20.63;87.79;98228.63;4915548;29;20047;-72
2021/07/25 06:51:13;;;;;;;9.93;6.60;;;;;;;20.53;86.08;98227.56;4915404;29;20020;-71
2021/07/25 06:53:40;;;;;;;10.68;6.97;;;;;;;20.58;87.91;98230.75;4915584;29;20111;-72
2021/07/25 06:56:08;;;;;;;9.38;6.68;;;;;;;20.92;85.65;98229.28;4915530;29;20038;-72
2021/07/25 06:58:33;;;;;;;12.07;7.13;;;;;;;20.91;83.26;98222.34;4915562;29;20043;-72
2021/07/25 07:00:59;;;;;;;7.60;6.45;;;;;;;20.93;86.49;98216.94;4915658;29;20028;-72
2021/07/25 07:03:24;;;;;;;9.35;6.40;;;;;;;21.54;83.55;98220.59;4915253;29;20366;-72
2021/07/25 07:05:49;;;;;;;7.28;6.03;;;;;;;21.91;82.81;98215.28;4915744;29;20060;-72
2021/07/25 07:08:15;;;;;;;8.77;6.18;;;;;;;24.02;70.56;98209.50;4915440;29;20032;-72
2021/07/25 07:10:43;;;;;;;10.07;5.43;;;;;;;24.62;67.79;98208.03;4915402;29;20083;-72
2021/07/25 07:13:11;;;;;;;8.00;5.53;;;;;;;26.02;64.68;98202.88;4915309;29;20067;-72
2021/07/25 07:15:39;;;;;;;8.17;5.37;;;;;;;26.64;60.41;98208.69;4915970;29;20032;-72
2021/07/25 07:18:05;;;;;;;6.97;4.70;;;;;;;26.29;63.07;98204.81;4919142;29;20115;-72
2021/07/25 07:20:31;;;;;;;5.78;4.18;;;;;;;25.98;61.48;98205.94;4918891;29;20473;-72
2021/07/25 07:23:02;;;;;;;13.35;5.03;;;;;;;28.39;57.13;98196.22;4918932;29;20069;-72
2021/07/25 07:25:35;;;;;;;9.02;4.30;;;;;;;29.08;51.19;98189.19;4918845;29;20040;-72
2021/07/25 07:28:00;;;;;;;6.97;4.57;;;;;;;28.15;54.55;98196.81;4919184;29;20036;-72
2021/07/25 07:30:25;;;;;;;6.90;4.47;;;;;;;30.26;48.17;98200.72;4918933;29;20433;-72
2021/07/25 07:32:51;;;;;;;5.32;4.18;;;;;;;30.00;49.59;98200.03;4918655;29;20476;-72
2021/07/25 07:35:23;;;;;;;7.18;4.70;;;;;;;27.44;54.92;98195.88;4918652;29;20023;-72
2021/07/25 07:37:49;;;;;;;8.57;4.55;;;;;;;25.83;61.27;98209.00;4918715;29;20111;-72
2021/07/25 07:40:15;;;;;;;5.78;4.57;;;;;;;25.32;63.94;98199.31;4918620;29;20104;-71
2021/07/25 07:42:40;;;;;;;7.63;4.95;;;;;;;23.80;66.41;98192.75;4918610;29;20028;-72
2021/07/25 07:45:06;;;;;;;10.98;4.65;;;;;;;23.56;68.21;98189.41;4918615;29;20111;-71
2021/07/25 07:47:31;;;;;;;7.35;4.78;;;;;;;23.79;67.95;98190.22;4918599;29;20028;-72
2021/07/25 07:49:57;;;;;;;7.60;5.18;;;;;;;23.01;70.20;98183.19;4918414;29;20038;-71
2021/07/25 07:52:22;;;;;;;5.32;4.70;;;;;;;23.62;71.73;98178.31;4918243;29;20486;-71
2021/07/25 07:54:47;;;;;;;7.00;4.75;;;;;;;24.16;69.12;98177.44;4918510;29;20021;-71
2021/07/25 07:57:13;;;;;;;9.85;5.25;;;;;;;24.53;68.60;98169.09;4918447;29;20092;-71
2021/07/25 07:59:38;;;;;;;5.78;5.07;;;;;;;24.00;66.91;98169.09;4918429;29;20028;-74
2021/07/25 08:02:04;;;;;;;6.97;4.80;;;;;;;23.59;69.58;98168.84;4918141;29;20107;-73
2021/07/25 08:04:29;;;;;;;10.38;5.10;;;;;;;23.49;68.61;98161.75;4918143;29;20028;-71
2021/07/25 08:06:55;;;;;;;6.22;4.40;;;;;;;23.40;68.71;98167.78;4918247;29;20066;-72
2021/07/25 08:09:20;;;;;;;7.65;4.88;;;;;;;23.30;68.89;98163.22;4918284;29;20099;-73
2021/07/25 08:11:46;;;;;;;7.88;5.18;;;;;;;23.57;68.46;98164.63;4917962;29;20039;-72
2021/07/25 08:14:13;;;;;;;5.60;5.10;;;;;;;23.66;67.26;98173.66;4901534;29;20024;-74
2021/07/25 08:16:39;;;;;;;8.50;4.72;;;;;;;23.54;69.72;98176.28;4918112;29;20107;-74
2021/07/25 08:19:04;;;;;;;9.65;5.50;;;;;;;23.31;69.84;98182.59;4918239;29;20107;-73
2021/07/25 08:21:30;;;;;;;7.80;4.80;;;;;;;23.34;69.00;98179.69;4917544;29;20042;-72
2021/07/25 08:23:55;;;;;;;9.85;5.60;;;;;;;23.02;72.25;98191.03;4918104;29;20036;-74
2021/07/25 08:26:21;;;;;;;6.63;5.70;;;;;;;22.97;72.50;98193.19;4918023;29;20030;-73
2021/07/25 08:28:46;;;;;;;10.85;5.90;;;;;;;22.93;72.89;98196.19;4900917;29;20024;-71
2021/07/25 08:31:11;;;;;;;7.05;5.15;;;;;;;23.19;70.45;98197.63;4917766;29;20070;-73
2021/07/25 08:33:37;;;;;;;10.68;5.70;;;;;;;22.99;71.43;98195.72;4917629;29;20031;-74
2021/07/25 08:36:02;;;;;;;12.77;6.63;;;;;;;22.57;73.57;98198.84;4917642;29;20092;-74
2021/07/25 08:38:28;;;;;;;10.80;6.05;;;;;;;22.93;72.43;98194.38;4917660;29;20036;-73
2021/07/25 08:41:21;;;;;;;10.07;5.75;;;;;;;22.71;74.20;98195.16;4917780;29;20067;-72
2021/07/25 08:43:47;;;;;;;9.60;5.28;;;;;;;22.44;75.53;98199.94;4917569;29;20028;-73
2021/07/25 08:46:15;;;;;;;10.05;5.38;;;;;;;22.42;77.95;98201.81;4917614;29;20095;-71
2021/07/25 08:48:45;;;;;;;9.27;6.03;;;;;;;22.21;78.76;98201.66;4917493;29;20034;-71
2021/07/25 08:51:19;;;;;;;10.75;6.00;;;;;;;22.25;76.26;98201.31;4917348;29;20082;-71
2021/07/25 08:53:58;;;;;;;6.25;5.65;;;;;;;22.86;76.05;98202.88;4917493;29;20474;-72
2021/07/25 08:56:29;;;;;;;7.55;5.07;;;;;;;22.45;74.43;98206.88;4917575;29;20031;-72
2021/07/25 08:58:59;;;;;;;9.93;5.75;;;;;;;22.74;74.37;98213.44;4917251;29;20024;-74
2021/07/25 09:01:39;;;;;;;7.28;5.32;;;;;;;23.62;71.42;98211.88;4917026;29;20485;-72
2021/07/25 09:04:05;;;;;;;7.95;5.93;;;;;;;23.83;72.33;98211.00;4916978;29;20084;-72
2021/07/25 09:06:50;;;;;;;12.15;6.35;;;;;;;23.83;71.47;98208.34;4917278;29;20055;-71
2021/07/25 09:09:17;;;;;;;6.35;5.18;;;;;;;23.70;70.95;98212.13;4917219;29;20060;-74
2021/07/25 09:11:45;;;;;;;8.90;5.60;;;;;;;23.60;71.15;98206.72;4916812;29;20054;-73
2021/07/25 09:14:10;;;;;;;8.25;5.65;;;;;;;23.72;71.53;98216.31;4917037;29;20062;-73
2021/07/25 09:16:36;;;;;;;9.68;4.93;;;;;;;23.85;69.06;98211.72;4916999;29;20115;-75
2021/07/25 09:19:02;;;;;;;7.40;5.72;;;;;;;24.39;66.90;98209.13;4917042;29;20128;-73
2021/07/25 09:21:43;;;;;;;10.27;5.03;;;;;;;24.36;66.39;98210.22;4916573;29;20060;-71
2021/07/25 09:24:25;;;;;;;7.95;4.85;;;;;;;24.23;68.35;98210.38;4916745;29;20115;-72
2021/07/25 09:26:52;;;;;;;5.72;4.55;;;;;;;24.39;67.06;98209.13;4917009;29;20028;-71
2021/07/25 09:29:18;;;;;;;6.38;4.78;;;;;;;24.60;65.70;98215.25;4916719;29;20486;-71
2021/07/25 09:31:44;;;;;;;6.63;4.78;;;;;;;24.55;67.27;98209.53;4914722;29;20027;-71
2021/07/25 09:34:09;;;;;;;7.55;4.75;;;;;;;24.11;67.35;98216.69;4906932;29;20027;-71
2021/07/25 09:36:37;;;;;;;6.32;4.65;;;;;;;24.27;66.02;98201.22;4916123;29;20105;-71
2021/07/25 09:39:04;;;;;;;7.13;5.30;;;;;;;24.17;67.31;98204.75;4916369;29;20039;-71
2021/07/25 09:41:32;;;;;;;5.43;4.72;;;;;;;24.19;67.80;98203.66;4916071;29;20034;-71
2021/07/25 09:44:05;;;;;;;6.45;4.97;;;;;;;23.77;69.30;98208.03;4916249;29;20028;-71
2021/07/25 09:46:49;;;;;;;8.40;4.65;;;;;;;23.50;69.21;98200.50;4916281;29;20035;-71
2021/07/25 09:49:15;;;;;;;7.07;4.50;;;;;;;23.11;69.62;98205.28;4916363;29;20028;-71
2021/07/25 09:51:41;;;;;;;5.72;5.03;;;;;;;23.36;69.55;98206.88;4925080;29;20024;-71
2021/07/25 09:54:07;;;;;;;7.43;5.38;;;;;;;23.19;70.92;98210.00;4916150;29;20084;-70
2021/07/25 09:56:32;;;;;;;5.68;5.13;;;;;;;23.55;69.19;98208.91;4916051;29;20485;-70
2021/07/25 09:58:59;;;;;;;6.18;4.75;;;;;;;23.33;70.00;98210.59;4915974;29;20028;-70
2021/07/25 10:01:38;;;;;;;5.40;4.63;;;;;;;23.42;71.25;98213.47;4915703;29;20038;-70
2021/07/25 10:04:21;;;;;;;5.88;3.88;;;;;;;23.08;71.90;98222.25;4914070;29;20063;-70
2021/07/25 10:06:50;;;;;;;4.93;4.15;;;;;;;22.87;67.87;98223.03;4916047;29;20032;-70
2021/07/25 10:09:19;;;;;;;;;;;;;;;23.00;68.39;98221.16;4916454;29;20405;-72
2021/07/25 10:11:55;;;;;;;8.13;4.65;;;;;;;22.98;68.77;98225.75;4915738;29;19911;-75
2021/07/25 10:14:21;;;;;;;8.15;5.40;;;;;;;22.68;72.74;98229.75;4915780;29;20481;-72
2021/07/25 10:16:56;;;;;;;5.80;4.18;;;;;;;23.02;71.66;98228.03;4915896;29;20042;-75
2021/07/25 10:19:35;;;;;;;7.82;5.43;;;;;;;23.27;67.96;98231.41;4915956;29;20039;-75
2021/07/25 10:22:03;;;;;;;7.00;5.00;;;;;;;23.53;66.96;98232.78;4903958;29;20032;-75
2021/07/25 10:24:29;;;;;;;7.88;5.03;;;;;;;24.26;65.84;98231.28;4898516;29;20032;-75
2021/07/25 10:26:56;;;;;;;6.05;4.50;;;;;;;25.22;62.01;98224.13;4919320;29;20059;-75
2021/07/25 10:29:23;;;;;;;5.55;4.43;;;;;;;25.86;59.31;98229.94;4916522;29;20036;-73
2021/07/25 10:31:51;;;;;;;5.50;4.80;;;;;;;26.03;60.87;98227.59;4915573;29;20068;-75
2021/07/25 10:34:24;;;;;;;10.48;5.18;;;;;;;26.20;58.11;98232.19;4915470;29;20026;-74
2021/07/25 10:36:51;;;;;;;8.10;4.72;;;;;;;25.36;59.67;98227.28;4915634;29;20027;-75
2021/07/25 10:39:17;;;;;;;9.75;4.70;;;;;;;25.68;61.31;98228.91;4915704;29;20032;-75
2021/07/25 10:41:47;;;;;;;6.45;5.40;;;;;;;25.73;59.68;98229.34;4915468;29;20024;-75
2021/07/25 10:44:15;;;;;;;7.47;4.75;;;;;;;25.32;61.94;98231.16;4915469;29;20413;-75
2021/07/25 10:46:40;;;;;;;7.95;5.60;;;;;;;24.86;61.52;98236.91;4915336;29;20501;-75
2021/07/25 10:49:09;;;;;;;6.40;4.57;;;;;;;24.90;63.82;98233.03;4915523;29;20032;-74
2021/07/25 10:51:36;;;;;;;9.80;5.45;;;;;;;24.71;62.80;98231.13;4914437;29;20485;-73
2021/07/25 10:54:24;;;;;;;8.52;5.78;;;;;;;24.06;64.33;98230.28;4919514;29;20055;-75
2021/07/25 10:57:07;;;;;;;8.02;5.45;;;;;;;23.76;65.40;98233.63;4919325;29;20516;-75
2021/07/25 10:59:45;;;;;;;23.65;15.18;;;;;;;24.04;66.41;98229.59;4903861;29;20024;-75
2021/07/25 11:02:14;;;;;;;9.48;5.82;;;;;;;24.20;67.27;98225.69;4915834;29;20477;-75
2021/07/25 11:04:48;;;;;;;9.43;5.82;;;;;;;24.17;66.01;98232.06;4918954;29;20481;-75
2021/07/25 11:07:22;;;;;;;7.45;5.82;;;;;;;24.63;64.58;98225.63;4919289;29;20109;-73
2021/07/25 11:09:58;;;;;;;9.38;5.43;;;;;;;24.90;64.55;98213.63;4919035;29;20028;-73
2021/07/25 11:12:24;;;;;;;5.72;4.90;;;;;;;25.28;62.15;98224.44;4918935;29;20036;-72
2021/07/25 11:14:55;;;;;;;26.85;18.15;;;;;;;25.05;63.51;98220.28;4918827;29;20561;-73
2021/07/25 11:17:53;;;;;;;5.55;5.03;;;;;;;25.10;63.57;98226.06;4918953;29;20120;-72
2021/07/25 11:20:30;;;;;;;6.60;4.85;;;;;;;25.55;64.04;98233.63;4867097;29;20044;-73
2021/07/25 11:22:56;;;;;;;4.63;4.15;;;;;;;24.92;62.91;98233.75;4910356;29;20083;-73
2021/07/25 11:25:35;;;;;;;4.95;4.55;;;;;;;25.18;62.65;98234.16;4906467;29;20032;-74
2021/07/25 11:28:04;;;;;;;7.97;4.63;;;;;;;24.84;63.17;98237.03;4905210;29;20029;-74
2021/07/25 11:30:48;;;;;;;;;;;;;;;24.71;64.64;98230.25;4908533;29;20091;-75
2021/07/25 11:33:41;;;;;;;7.10;4.72;;;;;;;24.64;65.87;98235.25;4908268;29;19926;-73
2021/07/25 11:39:32;;;;;;;8.13;4.63;;;;;;;25.05;63.18;98222.94;4902040;29;20154;-75
2021/07/25 11:41:58;;;;;;;10.80;4.60;;;;;;;25.21;62.73;98223.31;4907809;29;20454;-75
2021/07/25 11:44:28;;;;;;;6.85;4.65;;;;;;;24.28;66.65;98224.09;4909967;29;20453;-73
2021/07/25 11:46:58;;;;;;;7.65;4.53;;;;;;;23.81;68.83;98220.88;4909794;29;20039;-75
2021/07/25 11:49:24;;;;;;;10.10;4.82;;;;;;;24.69;65.17;98227.75;4908569;29;20036;-73
2021/07/25 11:51:51;;;;;;;9.40;4.50;;;;;;;25.06;63.47;98229.91;4909687;29;20418;-72
2021/07/25 11:54:20;;;;;;;7.22;4.82;;;;;;;25.16;62.45;98230.81;4903135;29;20032;-69
2021/07/25 11:57:12;;;;;;;6.80;4.50;;;;;;;25.12;61.95;98224.09;4897116;29;20035;-69
2021/07/25 11:59:45;;;;;;;5.18;4.43;;;;;;;25.07;61.39;98227.16;4889462;29;20063;-69
2021/07/25 12:02:10;;;;;;;4.82;4.32;;;;;;;24.98;62.80;98227.91;4886074;29;20032;-69
2021/07/25 12:04:40;;;;;;;5.32;4.53;;;;;;;24.83;62.94;98222.09;4886830;29;20028;-70
2021/07/25 12:07:17;;;;;;;8.93;4.55;;;;;;;24.34;65.16;98223.56;4890603;29;20039;-76
2021/07/25 12:09:50;;;;;;;6.30;4.53;;;;;;;24.53;66.47;98216.75;4880586;29;21451;-76
2021/07/25 12:12:28;;;;;;;12.40;10.27;;;;;;;24.73;62.97;98218.56;4877511;29;20039;-75
2021/07/25 12:15:00;;;;;;;7.00;4.43;;;;;;;24.41;65.48;98223.06;4878370;29;20516;-76
2021/07/25 12:17:45;;;;;;;7.20;4.70;;;;;;;23.91;65.03;98220.13;4877481;29;20485;-76
2021/07/25 12:20:13;;;;;;;5.57;4.40;;;;;;;24.13;67.19;98220.06;4918936;23;20043;-77
2021/07/25 12:22:51;;;;;;;7.60;4.43;;;;;;;24.16;66.78;98219.78;4880291;29;20044;-78
2021/07/25 12:25:17;;;;;;;4.90;3.83;;;;;;;24.26;66.08;98215.41;4892450;29;20050;-78
2021/07/25 12:27:43;;;;;;;4.35;3.95;;;;;;;24.05;66.56;98218.03;4894731;29;20032;-78
2021/07/25 12:30:12;;;;;;;6.28;4.30;;;;;;;23.92;67.35;98221.81;4899095;29;20028;-78
2021/07/25 12:32:38;;;;;;;7.10;4.30;;;;;;;24.17;64.81;98220.63;4898919;29;20413;-75
2021/07/25 12:35:11;;;;;;;18.63;13.07;;;;;;;23.97;65.60;98216.97;4897736;29;20032;-75
2021/07/25 12:37:55;;;;;;;5.82;4.40;;;;;;;23.61;65.93;98218.97;4900423;29;20131;-75
2021/07/25 12:40:28;;;;;;;4.80;4.30;;;;;;;23.43;67.84;98210.69;4904914;29;20036;-76
2021/07/25 12:42:56;;;;;;;4.60;4.03;;;;;;;23.54;64.35;98217.75;4908690;29;20036;-76
2021/07/25 12:45:33;;;;;;;4.85;3.63;;;;;;;23.42;63.87;98221.41;4904183;29;20903;-76
2021/07/25 12:48:29;;;;;;;8.90;4.38;;;;;;;23.28;65.71;98215.41;4904432;29;20642;-76
2021/07/25 12:53:43;;;;;;;8.30;4.15;;;;;;;23.01;65.87;98225.47;4908292;29;20520;-76
2021/07/25 12:56:13;;;;;;;7.28;4.80;;;;;;;23.12;65.71;98228.16;4908788;29;21291;-75
2021/07/25 12:58:41;;;;;;;9.85;6.22;;;;;;;23.09;66.51;98228.38;4908505;29;20028;-76
2021/07/25 13:03:57;;;;;;;7.57;4.85;;;;;;;23.16;70.78;98208.44;4903716;29;20545;-75
2021/07/25 13:06:26;;;;;;;10.02;4.90;;;;;;;23.38;70.87;98217.31;4905143;29;20078;-76
2021/07/25 13:08:56;;;;;;;6.20;4.97;;;;;;;23.38;67.73;98212.88;4906325;29;20508;-76
2021/07/25 13:11:24;;;;;;;6.68;4.07;;;;;;;23.30;69.60;98221.38;4904073;29;20036;-78
2021/07/25 13:13:51;;;;;;;5.70;4.45;;;;;;;23.25;69.35;98223.56;4906373;29;20079;-78
2021/07/25 13:16:17;;;;;;;6.07;5.32;;;;;;;23.52;69.20;98215.25;4904600;29;20043;-78
2021/07/25 13:18:46;;;;;;;7.15;5.32;;;;;;;23.56;71.50;98210.56;4908154;29;20044;-78
2021/07/25 13:21:12;;;;;;;5.40;4.88;;;;;;;23.70;69.11;98215.63;4905089;29;20082;-73
2021/07/25 13:23:37;;;;;;;7.07;4.90;;;;;;;23.74;68.42;98209.13;4905380;29;20578;-75
2021/07/25 13:26:04;;;;;;;7.32;4.50;;;;;;;23.69;67.41;98211.31;4903939;29;20043;-78
2021/07/25 13:28:29;;;;;;;17.77;11.45;;;;;;;23.58;67.72;98214.75;4908178;29;20059;-72
2021/07/25 13:30:55;;;;;;;7.57;5.20;;;;;;;23.67;66.19;98204.44;4905551;29;20036;-79
2021/07/25 13:33:20;;;;;;;5.47;4.90;;;;;;;23.40;66.28;98207.44;4904608;29;20032;-74
2021/07/25 13:35:49;;;;;;;5.75;4.50;;;;;;;23.49;68.60;98198.78;4906573;29;20115;-74
2021/07/25 13:38:16;;;;;;;6.72;5.38;;;;;;;23.59;68.78;98194.44;4902929;29;20028;-80
2021/07/25 13:40:41;;;;;;;5.88;5.28;;;;;;;23.60;67.22;98189.03;4906834;29;20055;-73
2021/07/25 13:43:11;;;;;;;12.68;11.15;;;;;;;24.17;65.25;98194.16;4904261;29;20383;-78
2021/07/25 13:45:40;;;;;;;6.25;5.45;;;;;;;24.04;64.55;98199.63;4902893;29;20028;-79
2021/07/25 13:48:06;;;;;;;10.00;4.55;;;;;;;24.17;63.13;98200.28;4901878;29;20055;-79
2021/07/25 13:50:31;;;;;;;9.30;4.70;;;;;;;23.97;63.45;98203.75;4906661;29;20047;-79
2021/07/25 13:52:57;;;;;;;4.53;4.10;;;;;;;23.77;64.13;98208.03;4905605;29;20027;-79
2021/07/25 13:55:22;;;;;;;5.70;4.82;;;;;;;23.70;64.85;98197.09;4894274;29;20115;-79
2021/07/25 13:57:47;;;;;;;8.05;5.53;;;;;;;23.66;64.85;98210.69;4904824;29;20040;-79
2021/07/25 14:00:13;;;;;;;8.75;5.70;;;;;;;23.54;66.39;98197.44;4900955;29;20028;-79
2021/07/25 14:02:38;;;;;;;8.15;5.60;;;;;;;23.47;66.90;98200.72;4900255;29;20032;-79
2021/07/25 14:05:04;;;;;;;8.18;5.75;;;;;;;23.41;69.22;98190.63;4904121;29;20065;-79
2021/07/25 14:07:29;;;;;;;7.18;5.45;;;;;;;23.48;67.09;98186.53;4904083;29;20063;-79
2021/07/25 14:09:55;;;;;;;5.68;4.82;;;;;;;23.18;69.45;98190.66;4905940;29;21379;-80
2021/07/25 14:12:20;;;;;;;8.25;5.47;;;;;;;23.32;67.21;98179.81;4903550;29;20493;-80
2021/07/25 14:14:45;;;;;;;15.45;11.07;;;;;;;23.46;67.08;98193.75;4902753;29;20059;-79
2021/07/25 14:17:11;;;;;;;7.43;5.68;;;;;;;23.54;66.41;98191.31;4889076;29;20127;-79
2021/07/25 14:19:36;;;;;;;8.00;4.88;;;;;;;23.63;66.72;98190.56;4904622;29;20028;-78
2021/07/25 14:22:03;;;;;;;7.35;5.80;;;;;;;23.92;66.48;98174.16;4905933;29;20127;-78
2021/07/25 14:24:28;;;;;;;7.90;4.93;;;;;;;24.06;65.47;98176.53;4904285;29;20029;-78
2021/07/25 14:26:54;;;;;;;6.15;4.95;;;;;;;24.65;63.42;98173.31;4905225;29;20042;-78
2021/07/25 14:29:19;;;;;;;5.25;4.75;;;;;;;24.01;65.39;98168.13;4902534;29;20032;-78
2021/07/25 14:31:45;;;;;;;6.00;4.82;;;;;;;24.72;62.65;98166.53;4903296;29;20159;-78
2021/07/25 14:34:10;;;;;;;6.25;5.10;;;;;;;24.53;64.00;98164.63;4902610;29;20035;-78
2021/07/25 14:36:35;;;;;;;5.75;4.57;;;;;;;24.62;63.46;98165.66;4905526;29;20599;-78
2021/07/25 14:39:00;;;;;;;6.50;5.00;;;;;;;24.31;64.76;98170.00;4903578;29;20498;-78
2021/07/25 14:41:26;;;;;;;6.07;5.25;;;;;;;23.68;66.97;98169.06;4906936;29;20070;-76
2021/07/25 14:43:52;;;;;;;9.63;5.28;;;;;;;24.18;64.48;98164.09;4902697;29;20028;-76
2021/07/25 14:46:18;;;;;;;5.88;4.82;;;;;;;24.35;64.23;98158.19;4907065;29;20028;-76
2021/07/25 14:48:46;;;;;;;8.68;5.63;;;;;;;24.41;63.90;98148.91;4901033;29;21451;-76
2021/07/25 14:51:13;;;;;;;5.93;5.20;;;;;;;24.72;63.26;98142.69;4905338;29;20028;-76
2021/07/25 14:53:39;;;;;;;8.13;5.00;;;;;;;24.82;63.15;98137.44;4872078;29;20059;-75
2021/07/25 14:56:09;;;;;;;8.73;5.53;;;;;;;24.64;62.94;98155.75;4884425;29;20596;-78
2021/07/25 14:58:36;;;;;;;18.10;11.55;;;;;;;24.61;64.40;98161.31;4875958;29;20096;-78
2021/07/25 15:01:02;;;;;;;6.53;5.68;;;;;;;24.21;64.38;98174.41;4876645;29;20040;-78
2021/07/25 15:03:27;;;;;;;10.23;5.43;;;;;;;24.38;64.49;98165.09;4875746;29;20032;-84
2021/07/25 15:05:53;;;;;;;6.82;5.57;;;;;;;24.23;65.19;98178.63;4876401;29;20036;-77
2021/07/25 15:08:18;;;;;;;5.60;4.95;;;;;;;24.18;64.79;98175.50;4876502;29;20553;-78
2021/07/25 15:10:43;;;;;;;8.95;5.53;;;;;;;24.08;65.98;98169.31;4876359;29;20040;-73
2021/07/25 15:13:10;;;;;;;8.23;5.65;;;;;;;23.98;66.69;98169.22;4875904;29;20033;-73
2021/07/25 15:15:35;;;;;;;11.20;5.35;;;;;;;24.30;66.47;98178.94;4876590;29;20100;-75
2021/07/25 15:18:01;;;;;;;7.72;5.25;;;;;;;24.22;66.92;98187.50;4876375;29;20029;-76
2021/07/25 15:20:26;;;;;;;6.55;5.65;;;;;;;24.18;66.11;98191.41;4890704;29;20039;-75
2021/07/25 15:22:57;;;;;;;18.70;14.93;;;;;;;24.23;66.56;98183.91;4876320;29;20033;-76
2021/07/25 15:25:23;;;;;;;8.93;5.40;;;;;;;24.51;64.83;98181.59;4876197;29;20037;-75
2021/07/25 15:27:48;;;;;;;8.50;5.32;;;;;;;24.72;65.52;98173.66;4868523;29;20036;-75
2021/07/25 15:30:13;;;;;;;9.50;5.03;;;;;;;24.93;63.40;98176.25;4867379;29;20029;-75
2021/07/25 15:32:39;;;;;;;10.15;6.47;;;;;;;25.26;63.14;98168.06;4866631;29;20387;-75
2021/07/25 15:35:04;;;;;;;7.05;5.03;;;;;;;25.41;61.72;98165.84;4860022;29;20592;-77
2021/07/25 15:37:30;;;;;;;10.27;5.57;;;;;;;25.32;63.74;98162.19;4857778;29;20035;-76
2021/07/25 15:39:55;;;;;;;16.33;11.50;;;;;;;25.77;62.25;98166.22;4861117;29;20088;-76
2021/07/25 15:42:20;;;;;;;9.90;6.07;;;;;;;26.30;59.63;98147.19;4854766;29;20065;-76
2021/07/25 15:44:45;;;;;;;6.97;5.25;;;;;;;25.85;59.27;98143.31;4851376;29;20028;-76
2021/07/25 15:47:11;;;;;;;7.88;5.00;;;;;;;25.86;58.45;98144.97;4850448;29;20033;-73
2021/07/25 15:49:36;;;;;;;5.57;5.00;;;;;;;26.23;59.27;98146.94;4852525;29;20068;-73
2021/07/25 15:52:03;;;;;;;7.88;4.95;;;;;;;26.68;58.90;98138.31;4852513;29;20064;-73
2021/07/25 15:54:29;;;;;;;11.25;5.45;;;;;;;26.01;60.51;98144.56;4850955;29;20028;-74
2021/07/25 15:56:54;;;;;;;6.72;5.13;;;;;;;25.69;59.47;98156.28;4857654;29;20508;-73
2021/07/25 15:59:20;;;;;;;8.88;5.38;;;;;;;25.92;57.52;98150.72;4865606;29;20106;-73
2021/07/25 16:01:47;;;;;;;9.93;5.13;;;;;;;25.71;59.52;98151.66;4865307;29;20037;-77
2021/07/25 16:04:13;;;;;;;5.88;4.45;;;;;;;25.68;58.77;98157.25;4868786;29;20028;-77
2021/07/25 16:06:38;;;;;;;5.65;4.45;;;;;;;25.27;59.02;98148.50;4874200;29;20413;-76
2021/07/25 16:09:04;;;;;;;6.82;4.40;;;;;;;25.31;59.19;98149.06;4874452;29;20036;-75
2021/07/25 16:11:31;;;;;;;5.63;4.60;;;;;;;25.24;59.74;98148.78;4875098;29;20443;-74
2021/07/25 16:13:57;;;;;;;5.97;4.53;;;;;;;25.33;59.01;98158.56;4879374;29;20033;-74
2021/07/25 16:16:23;;;;;;;5.90;4.68;;;;;;;24.74;60.14;98150.50;4879303;29;20080;-74
2021/07/25 16:18:50;;;;;;;5.35;4.85;;;;;;;25.16;60.72;98151.28;4879156;29;20136;-74
2021/07/25 16:21:19;;;;;;;7.18;4.97;;;;;;;25.02;60.97;98149.78;4878584;29;20494;-74
2021/07/25 16:23:45;;;;;;;6.97;4.80;;;;;;;24.62;61.02;98139.16;4878830;29;20558;-74
2021/07/25 16:26:11;;;;;;;7.85;4.57;;;;;;;24.70;60.83;98143.78;4879021;29;20417;-74
2021/07/25 16:28:38;;;;;;;5.75;4.47;;;;;;;24.71;61.19;98151.63;4879017;29;20040;-74
2021/07/25 16:31:08;;;;;;;7.03;4.55;;;;;;;24.63;61.03;98151.44;4878887;29;20032;-74
2021/07/25 16:33:34;;;;;;;10.25;7.95;;;;;;;24.73;59.68;98149.66;4862398;29;20088;-74
2021/07/25 16:35:59;;;;;;;6.47;4.95;;;;;;;24.31;61.17;98152.31;4878992;29;20032;-74
2021/07/25 16:38:25;;;;;;;4.68;4.20;;;;;;;24.38;61.77;98150.03;4878511;29;20041;-74
2021/07/25 16:40:50;;;;;;;5.13;4.13;;;;;;;24.23;62.28;98152.13;4878504;29;20029;-74
2021/07/25 16:43:15;;;;;;;5.85;4.45;;;;;;;23.76;62.15;98159.56;4878600;29;20037;-74
2021/07/25 16:45:41;;;;;;;10.70;5.28;;;;;;;23.75;63.46;98152.59;4878626;29;20021;-74
2021/07/25 16:48:06;;;;;;;6.55;3.72;;;;;;;23.63;62.94;98156.19;4878538;29;20064;-74
2021/07/25 16:50:32;;;;;;;5.85;4.15;;;;;;;24.02;63.00;98153.91;4878296;29;20798;-74
2021/07/25 16:52:58;;;;;;;5.75;4.47;;;;;;;24.05;61.73;98145.72;4878376;29;20033;-74
2021/07/25 16:55:23;;;;;;;4.88;3.97;;;;;;;24.06;62.38;98144.75;4878411;29;20063;-74
2021/07/25 16:57:48;;;;;;;4.70;3.78;;;;;;;23.98;61.83;98148.06;4878723;29;20120;-74
2021/07/25 17:00:14;;;;;;;5.43;4.43;;;;;;;24.20;62.95;98144.44;4878323;29;20036;-74
2021/07/25 17:02:40;;;;;;;9.73;7.20;;;;;;;24.24;62.91;98145.88;4876780;29;20040;-74
2021/07/25 17:05:05;;;;;;;9.55;4.63;;;;;;;24.34;61.83;98146.78;4878429;29;20029;-74
2021/07/25 17:07:30;;;;;;;7.15;4.25;;;;;;;24.62;61.45;98141.81;4878295;29;20121;-74
2021/07/25 17:09:56;;;;;;;6.38;4.32;;;;;;;24.66;60.47;98137.94;4878120;29;21155;-74
2021/07/25 17:12:21;;;;;;;5.20;4.50;;;;;;;25.05;60.21;98135.44;4877865;29;20112;-74
2021/07/25 17:14:46;;;;;;;5.28;3.85;;;;;;;25.28;58.28;98136.91;4878086;29;20044;-74
2021/07/25 17:17:11;;;;;;;6.40;4.35;;;;;;;25.19;57.20;98135.09;4877965;29;20040;-74
2021/07/25 17:19:37;;;;;;;4.32;3.47;;;;;;;25.32;55.74;98138.31;4877922;29;20040;-74
2021/07/25 17:22:03;;;;;;;3.47;3.10;;;;;;;25.33;55.42;98136.50;4877684;29;20193;-74
2021/07/25 17:24:30;;;;;;;3.55;2.60;;;;;;;25.37;52.96;98133.44;4877676;29;20021;-73
2021/07/25 17:26:56;;;;;;;2.63;2.22;;;;;;;24.62;54.39;98139.16;4878227;29;20975;-74
2021/07/25 17:29:21;;;;;;;2.92;2.28;;;;;;;23.83;57.10;98139.56;4877663;29;20032;-73
2021/07/25 17:31:46;;;;;;;2.75;2.50;;;;;;;23.56;56.68;98141.81;4877519;29;20483;-74
2021/07/25 17:34:12;;;;;;;2.42;2.22;;;;;;;23.43;57.20;98141.09;4877698;29;20060;-73
2021/07/25 17:36:37;;;;;;;7.43;4.40;;;;;;;23.32;58.57;98134.88;4877733;29;20395;-73
2021/07/25 17:39:03;;;;;;;3.40;3.10;;;;;;;23.18;58.65;98137.78;4877666;29;20025;-73
2021/07/25 17:41:28;;;;;;;3.40;2.35;;;;;;;23.23;58.34;98150.63;4877328;29;20029;-73
2021/07/25 17:43:54;;;;;;;2.50;2.17;;;;;;;23.30;58.25;98157.94;4877348;29;20028;-73
2021/07/25 17:46:20;;;;;;;3.00;2.20;;;;;;;23.24;58.90;98155.78;4877658;29;20191;-73
2021/07/25 17:48:45;;;;;;;3.30;2.50;;;;;;;23.25;59.65;98154.81;4877522;29;20115;-73
2021/07/25 17:51:16;;;;;;;4.57;2.90;;;;;;;23.23;60.84;98159.41;4877161;29;20029;-73